sensor_id;sensor_type;location;lat;lon;timestamp;temperature;humidity
18773;DHT22;9515;50.810;4.418;2022-08-14T00:00:48;24.50;99.40
18773;DHT22;9515;50.810;4.418;2022-08-14T00:03:19;24.60;99.90
18773;DHT22;9515;50.810;4.418;2022-08-14T00:05:45;24.70;99.80
18773;DHT22;9515;50.810;4.418;2022-08-14T00:08:10;24.60;99.90
18773;DHT22;9515;50.810;4.418;2022-08-14T00:10:36;24.50;99.70
18773;DHT22;9515;50.810;4.418;2022-08-14T00:13:02;24.30;99.90
18773;DHT22;9515;50.810;4.418;2022-08-14T00:15:31;24.40;99.90
18773;DHT22;9515;50.810;4.418;2022-08-14T00:18:00;24.40;99.90
18773;DHT22;9515;50.810;4.418;2022-08-14T00:20:29;24.30;99.90
18773;DHT22;9515;50.810;4.418;2022-08-14T00:22:55;24.20;99.90
18773;DHT22;9515;50.810;4.418;2022-08-14T00:25:21;24.20;99.90
18773;DHT22;9515;50.810;4.418;2022-08-14T00:27:46;24.20;99.90
18773;DHT22;9515;50.810;4.418;2022-08-14T00:30:13;24.10;99.70
18773;DHT22;9515;50.810;4.418;2022-08-14T00:32:39;24.20;99.90
18773;DHT22;9515;50.810;4.418;2022-08-14T00:35:06;24.10;99.90
18773;DHT22;9515;50.810;4.418;2022-08-14T00:37:32;24.10;99.90
18773;DHT22;9515;50.810;4.418;2022-08-14T00:39:58;24.10;99.90
18773;DHT22;9515;50.810;4.418;2022-08-14T00:42:25;24.10;99.90
18773;DHT22;9515;50.810;4.418;2022-08-14T00:44:51;24.10;99.20
18773;DHT22;9515;50.810;4.418;2022-08-14T00:47:17;24.10;98.80
18773;DHT22;9515;50.810;4.418;2022-08-14T00:49:44;24.20;98.60
18773;DHT22;9515;50.810;4.418;2022-08-14T00:52:14;24.30;98.60
18773;DHT22;9515;50.810;4.418;2022-08-14T00:54:42;24.30;99.50
18773;DHT22;9515;50.810;4.418;2022-08-14T00:57:08;24.30;99.30
18773;DHT22;9515;50.810;4.418;2022-08-14T00:59:33;24.30;99.50
18773;DHT22;9515;50.810;4.418;2022-08-14T01:02:00;24.20;99.30
18773;DHT22;9515;50.810;4.418;2022-08-14T01:04:28;24.20;99.80
18773;DHT22;9515;50.810;4.418;2022-08-14T01:06:56;24.20;99.90
18773;DHT22;9515;50.810;4.418;2022-08-14T01:09:23;24.20;99.80
18773;DHT22;9515;50.810;4.418;2022-08-14T01:11:49;24.20;99.50
18773;DHT22;9515;50.810;4.418;2022-08-14T01:14:16;24.20;99.60
18773;DHT22;9515;50.810;4.418;2022-08-14T01:16:42;24.20;99.80
18773;DHT22;9515;50.810;4.418;2022-08-14T01:19:08;24.20;99.60
18773;DHT22;9515;50.810;4.418;2022-08-14T01:21:52;24.10;99.60
18773;DHT22;9515;50.810;4.418;2022-08-14T01:24:18;24.10;99.90
18773;DHT22;9515;50.810;4.418;2022-08-14T01:26:45;24.00;99.90
18773;DHT22;9515;50.810;4.418;2022-08-14T01:29:11;24.00;99.90
18773;DHT22;9515;50.810;4.418;2022-08-14T01:31:39;24.00;99.90
18773;DHT22;9515;50.810;4.418;2022-08-14T01:34:25;23.90;99.90
18773;DHT22;9515;50.810;4.418;2022-08-14T01:36:51;23.90;99.90
18773;DHT22;9515;50.810;4.418;2022-08-14T01:39:18;23.80;99.90
18773;DHT22;9515;50.810;4.418;2022-08-14T01:41:46;23.80;99.90
18773;DHT22;9515;50.810;4.418;2022-08-14T01:44:22;23.70;99.90
18773;DHT22;9515;50.810;4.418;2022-08-14T01:46:50;23.70;99.90
18773;DHT22;9515;50.810;4.418;2022-08-14T01:49:19;23.80;99.90
18773;DHT22;9515;50.810;4.418;2022-08-14T01:51:46;23.70;99.90
18773;DHT22;9515;50.810;4.418;2022-08-14T01:54:17;23.70;99.90
18773;DHT22;9515;50.810;4.418;2022-08-14T01:56:54;23.60;99.90
18773;DHT22;9515;50.810;4.418;2022-08-14T01:59:24;23.60;99.90
18773;DHT22;9515;50.810;4.418;2022-08-14T02:01:55;23.50;99.90
18773;DHT22;9515;50.810;4.418;2022-08-14T02:04:23;23.50;99.90
18773;DHT22;9515;50.810;4.418;2022-08-14T02:06:50;23.50;99.90
18773;DHT22;9515;50.810;4.418;2022-08-14T02:09:17;23.40;99.90
18773;DHT22;9515;50.810;4.418;2022-08-14T02:11:43;23.40;99.90
18773;DHT22;9515;50.810;4.418;2022-08-14T02:14:12;23.30;99.90
18773;DHT22;9515;50.810;4.418;2022-08-14T02:16:40;23.30;99.90
18773;DHT22;9515;50.810;4.418;2022-08-14T02:19:08;23.20;99.90
18773;DHT22;9515;50.810;4.418;2022-08-14T02:21:36;23.20;99.90
18773;DHT22;9515;50.810;4.418;2022-08-14T02:24:04;23.20;99.90
18773;DHT22;9515;50.810;4.418;2022-08-14T02:26:32;23.20;99.90
18773;DHT22;9515;50.810;4.418;2022-08-14T02:29:00;23.20;99.90
18773;DHT22;9515;50.810;4.418;2022-08-14T02:31:28;23.10;99.90
18773;DHT22;9515;50.810;4.418;2022-08-14T02:34:05;23.10;99.90
18773;DHT22;9515;50.810;4.418;2022-08-14T02:36:31;23.10;99.90
18773;DHT22;9515;50.810;4.418;2022-08-14T02:38:57;23.00;99.90
18773;DHT22;9515;50.810;4.418;2022-08-14T02:41:22;23.00;99.90
18773;DHT22;9515;50.810;4.418;2022-08-14T02:43:50;23.00;99.90
18773;DHT22;9515;50.810;4.418;2022-08-14T02:46:16;22.90;99.90
18773;DHT22;9515;50.810;4.418;2022-08-14T02:48:42;22.90;99.90
18773;DHT22;9515;50.810;4.418;2022-08-14T02:51:11;22.90;99.90
18773;DHT22;9515;50.810;4.418;2022-08-14T02:53:43;22.90;99.90
18773;DHT22;9515;50.810;4.418;2022-08-14T02:56:12;22.90;99.90
18773;DHT22;9515;50.810;4.418;2022-08-14T02:58:45;22.80;99.90
18773;DHT22;9515;50.810;4.418;2022-08-14T03:01:13;22.80;99.90
18773;DHT22;9515;50.810;4.418;2022-08-14T03:03:40;22.80;99.90
18773;DHT22;9515;50.810;4.418;2022-08-14T03:06:07;22.80;99.90
18773;DHT22;9515;50.810;4.418;2022-08-14T03:08:34;22.80;99.90
18773;DHT22;9515;50.810;4.418;2022-08-14T03:11:03;22.80;99.90
18773;DHT22;9515;50.810;4.418;2022-08-14T03:13:32;22.80;99.90
18773;DHT22;9515;50.810;4.418;2022-08-14T03:16:01;22.70;99.90
18773;DHT22;9515;50.810;4.418;2022-08-14T03:18:27;22.70;99.90
18773;DHT22;9515;50.810;4.418;2022-08-14T03:20:53;22.60;99.90
18773;DHT22;9515;50.810;4.418;2022-08-14T03:23:19;22.60;99.90
18773;DHT22;9515;50.810;4.418;2022-08-14T03:25:45;22.60;99.90
18773;DHT22;9515;50.810;4.418;2022-08-14T03:28:13;22.50;99.90
18773;DHT22;9515;50.810;4.418;2022-08-14T03:30:39;22.50;99.90
18773;DHT22;9515;50.810;4.418;2022-08-14T03:33:06;22.50;99.90
18773;DHT22;9515;50.810;4.418;2022-08-14T03:35:33;22.50;99.90
18773;DHT22;9515;50.810;4.418;2022-08-14T03:38:10;22.40;99.90
18773;DHT22;9515;50.810;4.418;2022-08-14T03:40:40;22.40;99.90
18773;DHT22;9515;50.810;4.418;2022-08-14T03:43:07;22.40;99.90
18773;DHT22;9515;50.810;4.418;2022-08-14T03:45:35;22.40;99.90
18773;DHT22;9515;50.810;4.418;2022-08-14T03:50:40;22.40;99.90
18773;DHT22;9515;50.810;4.418;2022-08-14T03:53:09;22.30;99.90
18773;DHT22;9515;50.810;4.418;2022-08-14T03:55:37;22.30;99.90
18773;DHT22;9515;50.810;4.418;2022-08-14T03:58:05;22.20;99.90
18773;DHT22;9515;50.810;4.418;2022-08-14T04:00:31;22.20;99.90
18773;DHT22;9515;50.810;4.418;2022-08-14T04:02:57;22.20;99.90
18773;DHT22;9515;50.810;4.418;2022-08-14T04:05:23;22.20;99.90
18773;DHT22;9515;50.810;4.418;2022-08-14T04:07:49;22.10;99.90
18773;DHT22;9515;50.810;4.418;2022-08-14T04:10:15;22.10;99.90
18773;DHT22;9515;50.810;4.418;2022-08-14T04:12:42;22.20;99.90
18773;DHT22;9515;50.810;4.418;2022-08-14T04:15:08;22.00;99.90
18773;DHT22;9515;50.810;4.418;2022-08-14T04:17:35;22.00;99.90
18773;DHT22;9515;50.810;4.418;2022-08-14T04:20:01;22.10;99.90
18773;DHT22;9515;50.810;4.418;2022-08-14T04:22:32;22.20;99.90
18773;DHT22;9515;50.810;4.418;2022-08-14T04:24:58;22.10;99.90
18773;DHT22;9515;50.810;4.418;2022-08-14T04:27:26;22.10;99.90
18773;DHT22;9515;50.810;4.418;2022-08-14T04:29:52;22.00;99.90
18773;DHT22;9515;50.810;4.418;2022-08-14T04:32:18;22.00;99.90
18773;DHT22;9515;50.810;4.418;2022-08-14T04:38:07;22.00;99.90
18773;DHT22;9515;50.810;4.418;2022-08-14T04:40:51;21.90;99.90
18773;DHT22;9515;50.810;4.418;2022-08-14T04:43:36;21.90;99.90
18773;DHT22;9515;50.810;4.418;2022-08-14T04:46:15;21.90;99.90
18773;DHT22;9515;50.810;4.418;2022-08-14T04:48:41;21.80;99.90
18773;DHT22;9515;50.810;4.418;2022-08-14T04:51:09;21.90;99.90
18773;DHT22;9515;50.810;4.418;2022-08-14T04:53:39;21.90;99.90
18773;DHT22;9515;50.810;4.418;2022-08-14T04:56:08;22.00;99.90
18773;DHT22;9515;50.810;4.418;2022-08-14T04:58:34;22.10;99.90
18773;DHT22;9515;50.810;4.418;2022-08-14T05:01:03;22.20;99.90
18773;DHT22;9515;50.810;4.418;2022-08-14T05:03:31;22.40;99.90
18773;DHT22;9515;50.810;4.418;2022-08-14T05:06:00;22.50;99.90
18773;DHT22;9515;50.810;4.418;2022-08-14T05:08:26;22.80;99.90
18773;DHT22;9515;50.810;4.418;2022-08-14T05:10:54;23.00;99.90
18773;DHT22;9515;50.810;4.418;2022-08-14T05:13:22;23.20;99.90
18773;DHT22;9515;50.810;4.418;2022-08-14T05:15:48;23.30;99.90
18773;DHT22;9515;50.810;4.418;2022-08-14T05:18:30;23.30;99.90
18773;DHT22;9515;50.810;4.418;2022-08-14T05:21:00;23.20;99.90
18773;DHT22;9515;50.810;4.418;2022-08-14T05:23:30;23.50;99.90
18773;DHT22;9515;50.810;4.418;2022-08-14T05:25:58;23.70;99.90
18773;DHT22;9515;50.810;4.418;2022-08-14T05:28:29;24.00;99.90
18773;DHT22;9515;50.810;4.418;2022-08-14T05:31:00;24.30;99.90
18773;DHT22;9515;50.810;4.418;2022-08-14T05:33:28;24.60;99.90
18773;DHT22;9515;50.810;4.418;2022-08-14T05:35:56;25.20;99.90
18773;DHT22;9515;50.810;4.418;2022-08-14T05:38:28;25.30;99.30
18773;DHT22;9515;50.810;4.418;2022-08-14T05:41:09;25.90;99.00
18773;DHT22;9515;50.810;4.418;2022-08-14T05:43:36;26.40;97.50
18773;DHT22;9515;50.810;4.418;2022-08-14T05:46:03;26.50;98.60
18773;DHT22;9515;50.810;4.418;2022-08-14T05:48:28;26.60;97.60
18773;DHT22;9515;50.810;4.418;2022-08-14T05:50:55;27.10;97.30
18773;DHT22;9515;50.810;4.418;2022-08-14T05:53:24;27.50;96.60
18773;DHT22;9515;50.810;4.418;2022-08-14T05:55:51;28.00;96.70
18773;DHT22;9515;50.810;4.418;2022-08-14T05:58:17;28.40;96.70
18773;DHT22;9515;50.810;4.418;2022-08-14T06:00:45;28.90;96.60
18773;DHT22;9515;50.810;4.418;2022-08-14T06:03:17;29.20;96.10
18773;DHT22;9515;50.810;4.418;2022-08-14T06:05:44;29.70;94.90
18773;DHT22;9515;50.810;4.418;2022-08-14T06:08:30;30.30;93.80
18773;DHT22;9515;50.810;4.418;2022-08-14T06:11:01;30.70;93.70
18773;DHT22;9515;50.810;4.418;2022-08-14T06:13:41;31.10;92.50
18773;DHT22;9515;50.810;4.418;2022-08-14T06:16:08;31.40;92.60
18773;DHT22;9515;50.810;4.418;2022-08-14T06:18:34;31.80;92.40
18773;DHT22;9515;50.810;4.418;2022-08-14T06:21:01;32.00;92.50
18773;DHT22;9515;50.810;4.418;2022-08-14T06:23:27;32.30;92.00
18773;DHT22;9515;50.810;4.418;2022-08-14T06:25:53;32.60;91.90
18773;DHT22;9515;50.810;4.418;2022-08-14T06:28:21;32.90;91.30
18773;DHT22;9515;50.810;4.418;2022-08-14T06:30:48;33.00;91.40
18773;DHT22;9515;50.810;4.418;2022-08-14T06:33:15;33.10;91.20
18773;DHT22;9515;50.810;4.418;2022-08-14T06:35:42;33.10;91.30
18773;DHT22;9515;50.810;4.418;2022-08-14T06:38:12;33.30;91.30
18773;DHT22;9515;50.810;4.418;2022-08-14T06:40:38;33.50;91.30
18773;DHT22;9515;50.810;4.418;2022-08-14T06:43:06;33.80;91.10
18773;DHT22;9515;50.810;4.418;2022-08-14T06:45:34;34.30;90.70
18773;DHT22;9515;50.810;4.418;2022-08-14T06:48:00;34.40;90.30
18773;DHT22;9515;50.810;4.418;2022-08-14T06:50:27;34.30;90.50
18773;DHT22;9515;50.810;4.418;2022-08-14T06:52:53;34.60;88.30
18773;DHT22;9515;50.810;4.418;2022-08-14T06:55:19;34.70;89.10
18773;DHT22;9515;50.810;4.418;2022-08-14T06:57:48;35.00;87.60
18773;DHT22;9515;50.810;4.418;2022-08-14T07:00:19;34.40;86.60
18773;DHT22;9515;50.810;4.418;2022-08-14T07:02:46;34.00;87.40
18773;DHT22;9515;50.810;4.418;2022-08-14T07:05:31;34.00;87.60
18773;DHT22;9515;50.810;4.418;2022-08-14T07:10:47;33.30;88.10
18773;DHT22;9515;50.810;4.418;2022-08-14T07:13:14;33.30;88.70
18773;DHT22;9515;50.810;4.418;2022-08-14T07:15:42;33.90;87.60
18773;DHT22;9515;50.810;4.418;2022-08-14T07:18:10;34.30;87.70
18773;DHT22;9515;50.810;4.418;2022-08-14T07:20:37;34.60;87.80
18773;DHT22;9515;50.810;4.418;2022-08-14T07:23:06;34.40;88.30
18773;DHT22;9515;50.810;4.418;2022-08-14T07:25:32;34.60;88.30
18773;DHT22;9515;50.810;4.418;2022-08-14T07:27:58;34.70;87.50
18773;DHT22;9515;50.810;4.418;2022-08-14T07:30:24;34.60;86.90
18773;DHT22;9515;50.810;4.418;2022-08-14T07:32:50;34.30;88.20
18773;DHT22;9515;50.810;4.418;2022-08-14T07:35:16;34.40;87.50
18773;DHT22;9515;50.810;4.418;2022-08-14T07:37:42;34.70;86.60
18773;DHT22;9515;50.810;4.418;2022-08-14T07:40:08;35.00;86.80
18773;DHT22;9515;50.810;4.418;2022-08-14T07:42:35;35.10;87.70
18773;DHT22;9515;50.810;4.418;2022-08-14T07:45:01;35.30;85.80
18773;DHT22;9515;50.810;4.418;2022-08-14T07:47:27;35.70;86.70
18773;DHT22;9515;50.810;4.418;2022-08-14T07:50:02;36.20;87.10
18773;DHT22;9515;50.810;4.418;2022-08-14T07:52:29;36.00;86.80
18773;DHT22;9515;50.810;4.418;2022-08-14T07:54:55;36.00;86.20
18773;DHT22;9515;50.810;4.418;2022-08-14T07:57:21;35.00;85.80
18773;DHT22;9515;50.810;4.418;2022-08-14T07:59:46;34.90;86.90
18773;DHT22;9515;50.810;4.418;2022-08-14T08:02:15;34.90;87.60
18773;DHT22;9515;50.810;4.418;2022-08-14T08:04:43;34.90;86.70
18773;DHT22;9515;50.810;4.418;2022-08-14T08:07:10;35.00;87.10
18773;DHT22;9515;50.810;4.418;2022-08-14T08:09:36;35.10;86.60
18773;DHT22;9515;50.810;4.418;2022-08-14T08:12:04;35.20;85.90
18773;DHT22;9515;50.810;4.418;2022-08-14T08:14:32;34.80;87.30
18773;DHT22;9515;50.810;4.418;2022-08-14T08:16:59;34.20;87.20
18773;DHT22;9515;50.810;4.418;2022-08-14T08:19:25;34.20;88.30
18773;DHT22;9515;50.810;4.418;2022-08-14T08:21:51;34.50;88.20
18773;DHT22;9515;50.810;4.418;2022-08-14T08:24:18;35.00;87.40
18773;DHT22;9515;50.810;4.418;2022-08-14T08:26:43;35.30;86.80
18773;DHT22;9515;50.810;4.418;2022-08-14T08:29:09;35.00;86.70
18773;DHT22;9515;50.810;4.418;2022-08-14T08:31:46;35.20;86.70
18773;DHT22;9515;50.810;4.418;2022-08-14T08:34:13;35.30;87.20
18773;DHT22;9515;50.810;4.418;2022-08-14T08:36:41;35.20;86.70
18773;DHT22;9515;50.810;4.418;2022-08-14T08:39:07;34.60;87.80
18773;DHT22;9515;50.810;4.418;2022-08-14T08:41:45;34.20;88.40
18773;DHT22;9515;50.810;4.418;2022-08-14T08:44:12;34.00;88.30
18773;DHT22;9515;50.810;4.418;2022-08-14T08:46:38;33.70;89.20
18773;DHT22;9515;50.810;4.418;2022-08-14T08:49:05;33.70;89.00
18773;DHT22;9515;50.810;4.418;2022-08-14T08:51:38;33.20;90.10
18773;DHT22;9515;50.810;4.418;2022-08-14T08:54:12;33.30;89.80
18773;DHT22;9515;50.810;4.418;2022-08-14T08:56:58;33.00;90.20
18773;DHT22;9515;50.810;4.418;2022-08-14T08:59:26;32.90;90.70
18773;DHT22;9515;50.810;4.418;2022-08-14T09:02:01;33.50;90.20
18773;DHT22;9515;50.810;4.418;2022-08-14T09:04:32;33.60;90.10
18773;DHT22;9515;50.810;4.418;2022-08-14T09:06:58;33.50;90.50
18773;DHT22;9515;50.810;4.418;2022-08-14T09:09:30;33.40;91.30
18773;DHT22;9515;50.810;4.418;2022-08-14T09:11:58;33.60;90.80
18773;DHT22;9515;50.810;4.418;2022-08-14T09:14:26;33.60;90.60
18773;DHT22;9515;50.810;4.418;2022-08-14T09:16:54;33.40;90.30
18773;DHT22;9515;50.810;4.418;2022-08-14T09:19:20;33.10;90.00
18773;DHT22;9515;50.810;4.418;2022-08-14T09:21:46;32.70;90.50
18773;DHT22;9515;50.810;4.418;2022-08-14T09:24:13;32.90;91.00
18773;DHT22;9515;50.810;4.418;2022-08-14T09:26:40;33.10;91.20
18773;DHT22;9515;50.810;4.418;2022-08-14T09:29:07;33.10;91.10
18773;DHT22;9515;50.810;4.418;2022-08-14T09:31:35;33.10;91.50
18773;DHT22;9515;50.810;4.418;2022-08-14T09:45:21;33.80;91.50
18773;DHT22;9515;50.810;4.418;2022-08-14T09:47:55;33.50;91.40
18773;DHT22;9515;50.810;4.418;2022-08-14T09:50:28;33.30;92.40
18773;DHT22;9515;50.810;4.418;2022-08-14T09:53:03;33.40;92.70
18773;DHT22;9515;50.810;4.418;2022-08-14T09:55:34;33.70;92.00
18773;DHT22;9515;50.810;4.418;2022-08-14T09:58:18;33.90;92.00
18773;DHT22;9515;50.810;4.418;2022-08-14T10:03:30;33.10;92.60
18773;DHT22;9515;50.810;4.418;2022-08-14T10:06:11;33.50;92.20
18773;DHT22;9515;50.810;4.418;2022-08-14T10:11:15;35.90;90.80
18773;DHT22;9515;50.810;4.418;2022-08-14T10:13:42;37.50;87.40
18773;DHT22;9515;50.810;4.418;2022-08-14T10:16:08;38.60;86.30
18773;DHT22;9515;50.810;4.418;2022-08-14T10:18:33;39.00;84.70
18773;DHT22;9515;50.810;4.418;2022-08-14T10:21:00;39.70;83.00
18773;DHT22;9515;50.810;4.418;2022-08-14T10:23:38;40.30;82.10
18773;DHT22;9515;50.810;4.418;2022-08-14T10:26:06;40.70;81.60
18773;DHT22;9515;50.810;4.418;2022-08-14T10:29:04;41.40;79.40
18773;DHT22;9515;50.810;4.418;2022-08-14T10:31:31;40.80;81.00
18773;DHT22;9515;50.810;4.418;2022-08-14T10:34:08;41.20;78.40
18773;DHT22;9515;50.810;4.418;2022-08-14T10:36:38;41.50;77.10
18773;DHT22;9515;50.810;4.418;2022-08-14T10:39:22;42.30;78.00
18773;DHT22;9515;50.810;4.418;2022-08-14T10:41:59;41.90;74.80
18773;DHT22;9515;50.810;4.418;2022-08-14T10:44:35;42.30;74.30
18773;DHT22;9515;50.810;4.418;2022-08-14T10:47:04;42.40;75.10
18773;DHT22;9515;50.810;4.418;2022-08-14T10:49:37;43.30;74.50
18773;DHT22;9515;50.810;4.418;2022-08-14T10:52:06;43.80;72.00
18773;DHT22;9515;50.810;4.418;2022-08-14T10:54:51;43.00;70.00
18773;DHT22;9515;50.810;4.418;2022-08-14T10:57:23;43.00;72.60
18773;DHT22;9515;50.810;4.418;2022-08-14T10:59:59;43.30;71.20
18773;DHT22;9515;50.810;4.418;2022-08-14T11:02:29;43.10;69.80
18773;DHT22;9515;50.810;4.418;2022-08-14T11:05:05;43.70;69.90
18773;DHT22;9515;50.810;4.418;2022-08-14T11:07:36;44.00;69.10
18773;DHT22;9515;50.810;4.418;2022-08-14T11:10:08;44.30;69.00
18773;DHT22;9515;50.810;4.418;2022-08-14T11:12:49;44.20;68.60
18773;DHT22;9515;50.810;4.418;2022-08-14T11:15:20;44.00;68.80
18773;DHT22;9515;50.810;4.418;2022-08-14T11:17:47;44.80;68.30
18773;DHT22;9515;50.810;4.418;2022-08-14T11:20:17;45.00;66.90
18773;DHT22;9515;50.810;4.418;2022-08-14T11:22:44;44.80;65.70
18773;DHT22;9515;50.810;4.418;2022-08-14T11:25:12;44.00;65.20
18773;DHT22;9515;50.810;4.418;2022-08-14T11:27:42;42.80;65.70
18773;DHT22;9515;50.810;4.418;2022-08-14T11:30:10;43.00;66.20
18773;DHT22;9515;50.810;4.418;2022-08-14T11:32:39;42.80;66.30
18773;DHT22;9515;50.810;4.418;2022-08-14T11:35:05;43.00;66.20
18773;DHT22;9515;50.810;4.418;2022-08-14T11:37:31;41.80;66.00
18773;DHT22;9515;50.810;4.418;2022-08-14T11:40:01;41.70;67.10
18773;DHT22;9515;50.810;4.418;2022-08-14T11:42:28;41.80;67.60
18773;DHT22;9515;50.810;4.418;2022-08-14T11:45:02;42.30;67.30
18773;DHT22;9515;50.810;4.418;2022-08-14T11:47:31;42.40;67.00
18773;DHT22;9515;50.810;4.418;2022-08-14T11:49:57;41.30;66.60
18773;DHT22;9515;50.810;4.418;2022-08-14T11:52:33;40.70;67.90
18773;DHT22;9515;50.810;4.418;2022-08-14T11:55:01;40.60;67.60
18773;DHT22;9515;50.810;4.418;2022-08-14T11:57:32;39.90;67.40
18773;DHT22;9515;50.810;4.418;2022-08-14T12:00:06;39.20;67.60
18773;DHT22;9515;50.810;4.418;2022-08-14T12:02:34;40.20;67.30
18773;DHT22;9515;50.810;4.418;2022-08-14T12:05:03;40.70;67.00
18773;DHT22;9515;50.810;4.418;2022-08-14T12:07:29;40.70;66.60
18773;DHT22;9515;50.810;4.418;2022-08-14T12:09:55;40.10;66.70
18773;DHT22;9515;50.810;4.418;2022-08-14T12:12:23;39.40;67.80
18773;DHT22;9515;50.810;4.418;2022-08-14T12:17:28;39.00;67.00
18773;DHT22;9515;50.810;4.418;2022-08-14T12:20:01;38.80;65.40
18773;DHT22;9515;50.810;4.418;2022-08-14T12:22:37;40.20;64.70
18773;DHT22;9515;50.810;4.418;2022-08-14T12:25:22;40.00;64.00
18773;DHT22;9515;50.810;4.418;2022-08-14T12:27:50;39.30;65.90
18773;DHT22;9515;50.810;4.418;2022-08-14T12:30:28;39.70;65.20
18773;DHT22;9515;50.810;4.418;2022-08-14T12:32:56;40.00;65.20
18773;DHT22;9515;50.810;4.418;2022-08-14T12:35:22;40.70;64.50
18773;DHT22;9515;50.810;4.418;2022-08-14T12:37:49;41.80;64.30
18773;DHT22;9515;50.810;4.418;2022-08-14T12:40:17;42.00;63.50
18773;DHT22;9515;50.810;4.418;2022-08-14T12:42:48;41.30;64.20
18773;DHT22;9515;50.810;4.418;2022-08-14T12:45:14;41.40;64.90
18773;DHT22;9515;50.810;4.418;2022-08-14T12:47:40;41.10;64.50
18773;DHT22;9515;50.810;4.418;2022-08-14T12:50:08;40.70;65.20
18773;DHT22;9515;50.810;4.418;2022-08-14T12:52:40;41.10;65.60
18773;DHT22;9515;50.810;4.418;2022-08-14T12:55:10;42.00;64.90
18773;DHT22;9515;50.810;4.418;2022-08-14T12:57:41;43.30;64.40
18773;DHT22;9515;50.810;4.418;2022-08-14T13:00:09;43.60;63.20
18773;DHT22;9515;50.810;4.418;2022-08-14T13:02:47;43.40;63.50
18773;DHT22;9515;50.810;4.418;2022-08-14T13:05:15;43.20;64.60
18773;DHT22;9515;50.810;4.418;2022-08-14T13:07:41;43.50;63.50
18773;DHT22;9515;50.810;4.418;2022-08-14T13:10:12;43.60;63.50
18773;DHT22;9515;50.810;4.418;2022-08-14T13:12:41;43.30;64.00
18773;DHT22;9515;50.810;4.418;2022-08-14T13:15:10;41.30;65.00
18773;DHT22;9515;50.810;4.418;2022-08-14T13:17:46;40.20;66.90
18773;DHT22;9515;50.810;4.418;2022-08-14T13:20:19;41.40;66.60
18773;DHT22;9515;50.810;4.418;2022-08-14T13:22:45;43.00;65.20
18773;DHT22;9515;50.810;4.418;2022-08-14T13:25:16;44.10;64.20
18773;DHT22;9515;50.810;4.418;2022-08-14T13:27:47;44.20;64.20
18773;DHT22;9515;50.810;4.418;2022-08-14T13:30:15;43.90;62.90
18773;DHT22;9515;50.810;4.418;2022-08-14T13:32:43;43.00;63.80
18773;DHT22;9515;50.810;4.418;2022-08-14T13:35:14;43.30;63.70
18773;DHT22;9515;50.810;4.418;2022-08-14T13:37:44;43.70;64.00
18773;DHT22;9515;50.810;4.418;2022-08-14T13:40:10;44.20;63.70
18773;DHT22;9515;50.810;4.418;2022-08-14T13:42:41;43.90;64.00
18773;DHT22;9515;50.810;4.418;2022-08-14T13:45:07;43.40;65.90
18773;DHT22;9515;50.810;4.418;2022-08-14T13:47:33;43.00;64.90
18773;DHT22;9515;50.810;4.418;2022-08-14T13:50:03;41.50;66.40
18773;DHT22;9515;50.810;4.418;2022-08-14T13:52:33;40.70;67.00
18773;DHT22;9515;50.810;4.418;2022-08-14T13:55:02;40.70;66.10
18773;DHT22;9515;50.810;4.418;2022-08-14T13:57:31;40.90;66.30
18773;DHT22;9515;50.810;4.418;2022-08-14T14:00:04;41.00;67.30
18773;DHT22;9515;50.810;4.418;2022-08-14T14:02:42;40.80;66.00
18773;DHT22;9515;50.810;4.418;2022-08-14T14:05:13;40.40;65.70
18773;DHT22;9515;50.810;4.418;2022-08-14T14:07:44;40.40;66.10
18773;DHT22;9515;50.810;4.418;2022-08-14T14:10:11;40.80;66.20
18773;DHT22;9515;50.810;4.418;2022-08-14T14:12:38;40.60;66.20
18773;DHT22;9515;50.810;4.418;2022-08-14T14:15:11;39.40;68.00
18773;DHT22;9515;50.810;4.418;2022-08-14T14:17:37;39.10;67.50
18773;DHT22;9515;50.810;4.418;2022-08-14T14:20:09;39.40;67.40
18773;DHT22;9515;50.810;4.418;2022-08-14T14:22:41;39.60;66.70
18773;DHT22;9515;50.810;4.418;2022-08-14T14:25:09;38.80;67.80
18773;DHT22;9515;50.810;4.418;2022-08-14T14:27:36;38.40;68.20
18773;DHT22;9515;50.810;4.418;2022-08-14T14:30:05;38.30;69.10
18773;DHT22;9515;50.810;4.418;2022-08-14T14:32:31;37.80;69.10
18773;DHT22;9515;50.810;4.418;2022-08-14T14:35:00;37.60;70.30
18773;DHT22;9515;50.810;4.418;2022-08-14T14:37:30;38.00;69.20
18773;DHT22;9515;50.810;4.418;2022-08-14T14:39:57;37.60;68.60
18773;DHT22;9515;50.810;4.418;2022-08-14T14:42:25;37.70;69.50
18773;DHT22;9515;50.810;4.418;2022-08-14T14:44:58;38.10;69.40
18773;DHT22;9515;50.810;4.418;2022-08-14T14:47:26;38.00;70.10
18773;DHT22;9515;50.810;4.418;2022-08-14T14:49:55;37.50;70.00
18773;DHT22;9515;50.810;4.418;2022-08-14T14:52:21;37.30;70.90
18773;DHT22;9515;50.810;4.418;2022-08-14T14:54:48;37.20;70.80
18773;DHT22;9515;50.810;4.418;2022-08-14T14:57:16;36.80;72.00
18773;DHT22;9515;50.810;4.418;2022-08-14T14:59:41;36.90;71.30
18773;DHT22;9515;50.810;4.418;2022-08-14T15:02:08;36.80;72.10
18773;DHT22;9515;50.810;4.418;2022-08-14T15:04:36;36.10;72.80
18773;DHT22;9515;50.810;4.418;2022-08-14T15:07:04;35.40;74.60
18773;DHT22;9515;50.810;4.418;2022-08-14T15:09:32;35.70;75.00
18773;DHT22;9515;50.810;4.418;2022-08-14T15:11:57;35.90;74.30
18773;DHT22;9515;50.810;4.418;2022-08-14T15:14:23;36.10;73.50
18773;DHT22;9515;50.810;4.418;2022-08-14T15:16:49;36.20;73.30
18773;DHT22;9515;50.810;4.418;2022-08-14T15:19:15;36.10;73.80
18773;DHT22;9515;50.810;4.418;2022-08-14T15:21:41;35.90;71.50
18773;DHT22;9515;50.810;4.418;2022-08-14T15:24:07;35.80;72.30
18773;DHT22;9515;50.810;4.418;2022-08-14T15:26:33;36.00;72.30
18773;DHT22;9515;50.810;4.418;2022-08-14T15:29:04;36.20;72.60
18773;DHT22;9515;50.810;4.418;2022-08-14T15:31:30;36.40;70.00
18773;DHT22;9515;50.810;4.418;2022-08-14T15:33:56;36.50;70.70
18773;DHT22;9515;50.810;4.418;2022-08-14T15:36:42;36.80;71.70
18773;DHT22;9515;50.810;4.418;2022-08-14T15:39:10;36.70;70.20
18773;DHT22;9515;50.810;4.418;2022-08-14T15:41:36;36.60;70.60
18773;DHT22;9515;50.810;4.418;2022-08-14T15:44:02;36.70;70.90
18773;DHT22;9515;50.810;4.418;2022-08-14T15:46:29;36.90;71.10
18773;DHT22;9515;50.810;4.418;2022-08-14T15:48:54;37.20;71.20
18773;DHT22;9515;50.810;4.418;2022-08-14T15:51:20;37.20;70.90
18773;DHT22;9515;50.810;4.418;2022-08-14T15:53:46;37.40;70.40
18773;DHT22;9515;50.810;4.418;2022-08-14T15:56:11;37.60;70.40
18773;DHT22;9515;50.810;4.418;2022-08-14T15:58:40;37.50;74.00
18773;DHT22;9515;50.810;4.418;2022-08-14T16:01:05;37.10;70.20
18773;DHT22;9515;50.810;4.418;2022-08-14T16:03:52;36.80;71.30
18773;DHT22;9515;50.810;4.418;2022-08-14T16:06:22;36.80;74.20
18773;DHT22;9515;50.810;4.418;2022-08-14T16:08:52;36.60;74.20
18773;DHT22;9515;50.810;4.418;2022-08-14T16:11:18;35.90;77.90
18773;DHT22;9515;50.810;4.418;2022-08-14T16:13:45;35.80;77.90
18773;DHT22;9515;50.810;4.418;2022-08-14T16:16:26;36.00;79.20
18773;DHT22;9515;50.810;4.418;2022-08-14T16:18:53;36.00;77.30
18773;DHT22;9515;50.810;4.418;2022-08-14T16:21:23;35.50;82.00
18773;DHT22;9515;50.810;4.418;2022-08-14T16:23:49;34.90;82.20